• Join FlightAware (Why Join?)
  • Login
  • US Flag 
07:30AM EST


 

Airport Tracker/Info


-or-


 

Live Flight TrackerFlight Track Log ✈ EJA604 ✈ 27-Apr-2013 ✈ KCHO - KHXD

Flight Track Log - Related Links

Times and Time Zones

All times are in EDT time to prevent confusion due to time zone crossing. See the EJA604 flight status page for this flight to view local times or setup timezone preferences in your user account.

Time Position Orientation Groundspeed Altitude Reporting Facility
EDT Latitude Longitude Course Direction KTS MPH feet Rate Location/Type
12:40PM 38.1500 -78.4500 21° North 164 189 1,400  Level Potomac TRACON
12:41PM 38.2167 -78.4167 21° North 244 281 4,500 3,060 Climbing Potomac TRACON
12:42PM 38.2333 -78.4833 288° West 272 313 7,600 2,700 Climbing Potomac TRACON
12:42PM 38.2089 -78.5011 210° Southwest 278 320 8,000 1,020 Climbing Washington Center
12:43PM 38.1414 -78.5303 199° South 269 310 8,900 480 Climbing Washington Center
12:44PM 38.0822 -78.5622 203° Southwest 269 310 9,000 840 Climbing Washington Center
12:45PM 38.0106 -78.5961 200° South 269 310 10,700 1,980 Climbing Washington Center
12:46PM 37.9325 -78.6353 202° Southwest 280 322 13,100 2,400 Climbing Washington Center
12:47PM 37.8481 -78.6714 199° South 303 349 15,600 2,520 Climbing Washington Center
12:48PM 37.7489 -78.7172 200° South 338 389 18,100 2,160 Climbing Washington Center
12:49PM 37.6558 -78.7631 201° Southwest 350 403 20,000 1,560 Climbing Washington Center
12:50PM 37.5567 -78.8089 200° South 372 428 21,300 1,380 Climbing Washington Center
12:51PM 37.4531 -78.8567 200° South 384 442 22,800 1,440 Climbing Washington Center
12:52PM 37.3581 -78.9022 201° Southwest 397 457 24,300 1,440 Climbing Washington Center
12:53PM 37.2544 -78.9500 200° South 397 457 25,700 1,440 Climbing Washington Center
12:54PM 37.1486 -78.9975 200° South 402 463 27,200 1,140 Climbing Washington Center
12:55PM 37.0431 -79.0500 202° Southwest 402 463 28,000 360 Climbing Washington Center
12:56PM 36.9331 -79.0997 200° South 413 475 28,000  Level Washington Center
12:57PM 36.8125 -79.1567 201° Southwest 419 482 28,000  Level Washington Center
12:58PM 36.6983 -79.2058 199° South 419 482 28,000  Level Washington Center
12:59PM 36.5903 -79.2575 201° Southwest 424 488 28,000  Level Washington Center
01:00PM 36.4781 -79.3092 200° South 424 488 28,000  Level Washington Center
01:01PM 36.3678 -79.3633 202° Southwest 429 494 28,000  Level Washington Center
01:02PM 36.2578 -79.4119 200° South 429 494 28,000  Level Washington Center
01:03PM 36.1497 -79.4633 201° Southwest 429 494 28,000  Level Washington Center
01:04PM 36.0375 -79.5144 200° South 424 488 28,000  Level Washington Center
01:05PM 35.9381 -79.5581 200° South 424 488 28,000  Level Washington Center
01:06PM 35.8172 -79.6111 200° South 418 481 28,000  Level Washington Center
01:07PM 35.7161 -79.6442 195° South 418 481 28,000  Level Washington Center
01:08PM 35.5875 -79.6811 193° South 424 488 28,000  Level Washington Center
01:09PM 35.4733 -79.7214 196° South 429 494 28,000  Level Washington Center
01:10PM 35.3575 -79.7561 194° South 429 494 28,000  Level Washington Center
01:11PM 35.2436 -79.7908 194° South 429 494 28,000  Level Washington Center
01:13PM 35.0453 -79.8550 195° South 430 495 28,000  Level Jacksonville Center
01:14PM 34.9292 -79.8897 194° South 430 495 28,000  Level Jacksonville Center
01:15PM 34.8133 -79.9267 195° South 430 495 28,000 -360 Level Jacksonville Center
01:16PM 34.6994 -79.9608 194° South 430 495 27,300 -1,080 Descending Jacksonville Center
01:17PM 34.5856 -79.9925 193° South 430 495 25,900 -1,200 Descending Jacksonville Center
01:18PM 34.4611 -80.0294 194° South 430 495 25,000 -480 Descending Jacksonville Center
01:19PM 34.3492 -80.0658 195° South 430 495 25,000  Level Jacksonville Center
01:20PM 34.2375 -80.1019 195° South 430 495 25,000  Level Jacksonville Center
01:21PM 34.1214 -80.1383 195° South 430 495 25,000  Level Jacksonville Center
01:22PM 34.0075 -80.1719 194° South 430 495 25,000  Level Jacksonville Center
01:23PM 33.8956 -80.2056 194° South 430 495 25,000  Level Jacksonville Center
01:24PM 33.7792 -80.2389 193° South 430 495 25,000 -300 Level Jacksonville Center
01:25PM 33.6631 -80.2750 195° South 430 495 24,400 -540 Descending Jacksonville Center
01:26PM 33.5469 -80.3108 194° South 430 495 24,000 -1,080 Descending Jacksonville Center
01:27PM 33.4331 -80.3439 194° South 430 495 22,300 -1,800 Descending Jacksonville Center
01:28PM 33.3231 -80.3769 194° South 430 495 20,400 -1,920 Descending Jacksonville Center
01:29PM 33.2172 -80.4097 195° South 414 476 18,500 -1,680 Descending Jacksonville Center
01:30PM 33.1258 -80.4369 194° South 395 455 17,100 -1,680 Descending Jacksonville Center
01:31PM 33.0222 -80.4672 194° South 390 449 15,200 -1,920 Descending Jacksonville Center
01:32PM 32.9183 -80.4972 194° South 390 449 13,300 -1,800 Descending Jacksonville Center
01:33PM 32.8208 -80.5244 193° South 380 437 11,700 -1,560 Descending Jacksonville Center
01:34PM 32.7336 -80.5514 195° South 357 411 10,200 -1,620 Descending Jacksonville Center
01:35PM 32.6547 -80.5831 199° South 282 325 8,500 -1,560 Descending Jacksonville Center
01:36PM 32.5886 -80.6119 200° South 265 305 7,100 -1,500 Descending Jacksonville Center
01:37PM 32.5097 -80.6458 200° South 274 315 5,600 -1,380 Descending Jacksonville Center
01:38PM 32.4436 -80.6819 205° Southwest 269 310 4,400 -1,200 Descending Jacksonville Center
01:39PM 32.3836 -80.7131 204° Southwest 269 310 3,200 -1,200 Descending Jacksonville Center
01:41PM 32.2244 -80.6975 North  Level Estimated
01:48PM 32.2244 -80.6975 North  Level Estimated
01:49PM 32.2244 -80.6975 North  Level Estimated
01:50PM 32.2244 -80.6975 North  Level Estimated
01:51PM 32.2244 -80.6975 North  Level Estimated
01:52PM 32.2244 -80.6975 North  Level Estimated